sensor_id;sensor_type;location;lat;lon;timestamp;pressure;altitude;pressure_sealevel;temperature;humidity
41383;BME280;27971;53.902;9.118;2023-01-26T00:05:10;102450.0;;;20.74;24.77
41383;BME280;27971;53.902;9.118;2023-01-26T00:07:12;102446.0;;;20.91;24.58
41383;BME280;27971;53.902;9.118;2023-01-26T00:09:14;102442.0;;;21.13;24.28
41383;BME280;27971;53.902;9.118;2023-01-26T00:11:19;102442.0;;;21.19;24.12
41383;BME280;27971;53.902;9.118;2023-01-26T00:13:21;102436.99999999999;;;21.94;24.18
41383;BME280;27971;53.902;9.118;2023-01-26T00:15:24;102433.0;;;22.14;24.27
41383;BME280;27971;53.902;9.118;2023-01-26T00:17:26;102431.0;;;22.05;24.36
41383;BME280;27971;53.902;9.118;2023-01-26T00:19:29;102428.0;;;22.08;24.4
41383;BME280;27971;53.902;9.118;2023-01-26T00:21:31;102424.0;;;22.03;24.47
41383;BME280;27971;53.902;9.118;2023-01-26T00:23:35;102419.0;;;22.02;24.46
41383;BME280;27971;53.902;9.118;2023-01-26T00:25:37;102416.00000000001;;;22.07;24.42
41383;BME280;27971;53.902;9.118;2023-01-26T00:27:39;102413.00000000001;;;22.12;24.37
41383;BME280;27971;53.902;9.118;2023-01-26T00:29:42;102408.0;;;22.08;24.43
41383;BME280;27971;53.902;9.118;2023-01-26T00:31:44;102407.0;;;22.12;24.39
41383;BME280;27971;53.902;9.118;2023-01-26T00:33:47;102411.99999999999;;;22.07;24.42
41383;BME280;27971;53.902;9.118;2023-01-26T00:35:54;102415.00000000001;;;22.04;24.42
41383;BME280;27971;53.902;9.118;2023-01-26T00:37:52;102411.99999999999;;;22.17;24.34
41383;BME280;27971;53.902;9.118;2023-01-26T00:39:54;102411.99999999999;;;22.13;24.34
41383;BME280;27971;53.902;9.118;2023-01-26T00:41:56;102410.99999999999;;;21.99;24.47
41383;BME280;27971;53.902;9.118;2023-01-26T00:43:59;102414.00000000001;;;21.88;24.56
41383;BME280;27971;53.902;9.118;2023-01-26T00:46:02;102411.99999999999;;;22.06;24.44
41383;BME280;27971;53.902;9.118;2023-01-26T00:48:04;102414.00000000001;;;21.97;24.51
41383;BME280;27971;53.902;9.118;2023-01-26T00:50:08;102415.00000000001;;;21.86;24.58
41383;BME280;27971;53.902;9.118;2023-01-26T00:52:10;102414.00000000001;;;21.82;24.61
41383;BME280;27971;53.902;9.118;2023-01-26T00:54:13;102409.99999999999;;;21.96;24.55
41383;BME280;27971;53.902;9.118;2023-01-26T00:56:16;102408.0;;;21.93;24.57
41383;BME280;27971;53.902;9.118;2023-01-26T00:58:18;102407.0;;;21.84;24.61
41383;BME280;27971;53.902;9.118;2023-01-26T01:00:21;102405.0;;;21.73;24.67
41383;BME280;27971;53.902;9.118;2023-01-26T01:02:23;102405.0;;;21.83;24.6
41383;BME280;27971;53.902;9.118;2023-01-26T01:04:26;102408.99999999999;;;21.83;24.6
41383;BME280;27971;53.902;9.118;2023-01-26T01:06:28;102410.99999999999;;;21.82;24.58
41383;BME280;27971;53.902;9.118;2023-01-26T01:08:31;102409.99999999999;;;21.78;24.61
41383;BME280;27971;53.902;9.118;2023-01-26T01:10:33;102407.0;;;21.75;24.65
41383;BME280;27971;53.902;9.118;2023-01-26T01:12:35;102405.0;;;21.76;24.65
41383;BME280;27971;53.902;9.118;2023-01-26T01:14:38;102402.0;;;21.88;24.56
41383;BME280;27971;53.902;9.118;2023-01-26T01:16:41;102403.0;;;21.9;24.55
41383;BME280;27971;53.902;9.118;2023-01-26T01:18:44;102404.0;;;21.76;24.63
41383;BME280;27971;53.902;9.118;2023-01-26T01:20:47;102405.0;;;21.79;24.64
41383;BME280;27971;53.902;9.118;2023-01-26T01:22:50;102402.0;;;21.81;24.6
41383;BME280;27971;53.902;9.118;2023-01-26T01:24:52;102400.0;;;21.67;24.69
41383;BME280;27971;53.902;9.118;2023-01-26T01:26:55;102399.0;;;21.67;24.71
41383;BME280;27971;53.902;9.118;2023-01-26T01:28:57;102397.0;;;21.76;24.66
41383;BME280;27971;53.902;9.118;2023-01-26T01:31:03;102398.0;;;21.68;24.7
41383;BME280;27971;53.902;9.118;2023-01-26T01:33:03;102401.0;;;21.77;24.63
41383;BME280;27971;53.902;9.118;2023-01-26T01:35:06;102400.0;;;21.81;24.6
41383;BME280;27971;53.902;9.118;2023-01-26T01:37:09;102397.0;;;21.72;24.65
41383;BME280;27971;53.902;9.118;2023-01-26T01:39:12;102395.0;;;21.69;24.68
41383;BME280;27971;53.902;9.118;2023-01-26T01:41:16;102395.0;;;21.76;24.59
41383;BME280;27971;53.902;9.118;2023-01-26T01:43:17;102395.0;;;21.65;24.67
41383;BME280;27971;53.902;9.118;2023-01-26T01:45:40;102395.0;;;21.67;24.64
41383;BME280;27971;53.902;9.118;2023-01-26T01:47:24;102397.0;;;21.84;24.69
41383;BME280;27971;53.902;9.118;2023-01-26T01:49:28;102399.0;;;21.65;24.7
41383;BME280;27971;53.902;9.118;2023-01-26T01:51:32;102398.0;;;21.52;24.79
41383;BME280;27971;53.902;9.118;2023-01-26T01:53:34;102396.0;;;21.71;24.66
41383;BME280;27971;53.902;9.118;2023-01-26T01:55:33;102393.0;;;21.81;24.67
41383;BME280;27971;53.902;9.118;2023-01-26T01:57:40;102389.0;;;21.68;24.69
41383;BME280;27971;53.902;9.118;2023-01-26T01:59:39;102385.0;;;21.69;24.7
41383;BME280;27971;53.902;9.118;2023-01-26T02:01:42;102384.0;;;21.66;24.7
41383;BME280;27971;53.902;9.118;2023-01-26T02:03:46;102382.0;;;21.63;24.59
41383;BME280;27971;53.902;9.118;2023-01-26T02:05:53;102382.0;;;21.52;24.71
41383;BME280;27971;53.902;9.118;2023-01-26T02:07:50;102379.0;;;21.75;24.64
41383;BME280;27971;53.902;9.118;2023-01-26T02:09:53;102377.0;;;21.62;24.64
41383;BME280;27971;53.902;9.118;2023-01-26T02:11:56;102376.0;;;21.7;24.59
41383;BME280;27971;53.902;9.118;2023-01-26T02:13:59;102375.0;;;21.73;24.61
41383;BME280;27971;53.902;9.118;2023-01-26T02:16:00;102374.0;;;21.76;24.59
41383;BME280;27971;53.902;9.118;2023-01-26T02:18:03;102374.0;;;21.55;24.68
41383;BME280;27971;53.902;9.118;2023-01-26T02:20:10;102370.0;;;21.64;24.66
41383;BME280;27971;53.902;9.118;2023-01-26T02:22:13;102370.0;;;21.73;24.63
41383;BME280;27971;53.902;9.118;2023-01-26T02:24:15;102371.0;;;21.64;24.69
41383;BME280;27971;53.902;9.118;2023-01-26T02:26:15;102369.0;;;21.72;24.66
41383;BME280;27971;53.902;9.118;2023-01-26T02:28:17;102366.0;;;21.61;24.72
41383;BME280;27971;53.902;9.118;2023-01-26T02:30:20;102365.0;;;21.55;24.68
41383;BME280;27971;53.902;9.118;2023-01-26T02:32:21;102360.0;;;21.61;24.62
41383;BME280;27971;53.902;9.118;2023-01-26T02:34:24;102355.0;;;21.67;24.61
41383;BME280;27971;53.902;9.118;2023-01-26T02:36:28;102353.0;;;21.6;24.58
41383;BME280;27971;53.902;9.118;2023-01-26T02:38:36;102354.0;;;21.66;24.57
41383;BME280;27971;53.902;9.118;2023-01-26T02:40:39;102354.0;;;21.82;24.53
41383;BME280;27971;53.902;9.118;2023-01-26T02:42:35;102354.0;;;21.75;24.55
41383;BME280;27971;53.902;9.118;2023-01-26T02:44:39;102354.0;;;21.54;24.62
41383;BME280;27971;53.902;9.118;2023-01-26T02:46:40;102354.0;;;21.48;24.69
41383;BME280;27971;53.902;9.118;2023-01-26T02:48:43;102350.0;;;21.65;24.54
41383;BME280;27971;53.902;9.118;2023-01-26T02:50:45;102350.0;;;21.68;24.53
41383;BME280;27971;53.902;9.118;2023-01-26T02:52:47;102347.0;;;21.67;24.51
41383;BME280;27971;53.902;9.118;2023-01-26T02:54:50;102347.0;;;21.74;24.43
41383;BME280;27971;53.902;9.118;2023-01-26T02:56:53;102346.0;;;21.63;24.52
41383;BME280;27971;53.902;9.118;2023-01-26T02:58:55;102342.0;;;21.62;24.51
41383;BME280;27971;53.902;9.118;2023-01-26T03:00:58;102338.0;;;21.76;24.46
41383;BME280;27971;53.902;9.118;2023-01-26T03:03:00;102334.0;;;21.6;24.52
41383;BME280;27971;53.902;9.118;2023-01-26T03:05:04;102332.0;;;21.68;24.46
41383;BME280;27971;53.902;9.118;2023-01-26T03:07:06;102332.0;;;21.74;24.37
41383;BME280;27971;53.902;9.118;2023-01-26T03:09:09;102334.0;;;21.74;24.4
41383;BME280;27971;53.902;9.118;2023-01-26T03:11:11;102335.0;;;21.68;24.47
41383;BME280;27971;53.902;9.118;2023-01-26T03:13:14;102335.0;;;21.77;24.41
41383;BME280;27971;53.902;9.118;2023-01-26T03:15:16;102335.0;;;21.76;24.37
41383;BME280;27971;53.902;9.118;2023-01-26T03:17:19;102333.0;;;21.68;24.47
41383;BME280;27971;53.902;9.118;2023-01-26T03:19:22;102332.0;;;21.61;24.52
41383;BME280;27971;53.902;9.118;2023-01-26T03:21:24;102331.0;;;21.6;24.49
41383;BME280;27971;53.902;9.118;2023-01-26T03:23:27;102329.0;;;21.64;24.46
41383;BME280;27971;53.902;9.118;2023-01-26T03:25:29;102328.0;;;21.56;24.49
41383;BME280;27971;53.902;9.118;2023-01-26T03:27:38;102329.0;;;21.5;24.52
41383;BME280;27971;53.902;9.118;2023-01-26T03:29:35;102329.0;;;21.75;24.43
41383;BME280;27971;53.902;9.118;2023-01-26T03:31:37;102326.0;;;21.62;24.45
41383;BME280;27971;53.902;9.118;2023-01-26T03:33:40;102322.0;;;21.67;24.39
41383;BME280;27971;53.902;9.118;2023-01-26T03:35:42;102320.0;;;21.61;24.47
41383;BME280;27971;53.902;9.118;2023-01-26T03:37:45;102319.0;;;21.57;24.42
41383;BME280;27971;53.902;9.118;2023-01-26T03:39:48;102318.0;;;21.58;24.45
41383;BME280;27971;53.902;9.118;2023-01-26T03:41:49;102320.0;;;21.44;24.52
41383;BME280;27971;53.902;9.118;2023-01-26T03:43:52;102319.0;;;21.57;24.4
41383;BME280;27971;53.902;9.118;2023-01-26T03:45:54;102318.0;;;21.58;24.41
41383;BME280;27971;53.902;9.118;2023-01-26T03:48:03;102318.0;;;21.47;24.45
41383;BME280;27971;53.902;9.118;2023-01-26T03:50:00;102320.0;;;21.71;24.33
41383;BME280;27971;53.902;9.118;2023-01-26T03:52:03;102324.0;;;21.4;24.48
41383;BME280;27971;53.902;9.118;2023-01-26T03:54:06;102323.0;;;21.61;24.36
41383;BME280;27971;53.902;9.118;2023-01-26T03:56:10;102324.0;;;21.47;24.42
41383;BME280;27971;53.902;9.118;2023-01-26T03:58:11;102325.0;;;21.51;24.39
41383;BME280;27971;53.902;9.118;2023-01-26T04:00:14;102324.0;;;21.44;24.41
41383;BME280;27971;53.902;9.118;2023-01-26T04:02:17;102325.0;;;21.4;24.5
41383;BME280;27971;53.902;9.118;2023-01-26T04:04:19;102324.0;;;21.44;24.39
41383;BME280;27971;53.902;9.118;2023-01-26T04:06:22;102324.0;;;21.47;24.36
41383;BME280;27971;53.902;9.118;2023-01-26T04:08:24;102321.0;;;21.66;24.22
41383;BME280;27971;53.902;9.118;2023-01-26T04:10:27;102319.0;;;21.59;24.28
41383;BME280;27971;53.902;9.118;2023-01-26T04:12:30;102318.0;;;21.41;24.37
41383;BME280;27971;53.902;9.118;2023-01-26T04:14:32;102315.0;;;21.44;24.37
41383;BME280;27971;53.902;9.118;2023-01-26T04:16:35;102313.0;;;21.45;24.4
41383;BME280;27971;53.902;9.118;2023-01-26T04:18:37;102311.0;;;21.44;24.38
41383;BME280;27971;53.902;9.118;2023-01-26T04:20:40;102310.0;;;21.38;24.41
41383;BME280;27971;53.902;9.118;2023-01-26T04:22:42;102309.0;;;21.17;24.5
41383;BME280;27971;53.902;9.118;2023-01-26T04:24:44;102302.0;;;21.5;24.31
41383;BME280;27971;53.902;9.118;2023-01-26T04:26:47;102300.0;;;21.39;24.4
41383;BME280;27971;53.902;9.118;2023-01-26T04:28:50;102298.0;;;21.4;24.36
41383;BME280;27971;53.902;9.118;2023-01-26T04:30:52;102295.0;;;21.38;24.32
41383;BME280;27971;53.902;9.118;2023-01-26T04:32:55;102292.0;;;21.43;24.26
41383;BME280;27971;53.902;9.118;2023-01-26T04:34:58;102291.0;;;21.51;24.15
41383;BME280;27971;53.902;9.118;2023-01-26T04:37:00;102290.0;;;21.39;24.24
41383;BME280;27971;53.902;9.118;2023-01-26T04:39:03;102292.0;;;21.43;24.15
41383;BME280;27971;53.902;9.118;2023-01-26T04:41:06;102294.0;;;21.49;24.15
41383;BME280;27971;53.902;9.118;2023-01-26T04:43:08;102298.0;;;21.39;24.22
41383;BME280;27971;53.902;9.118;2023-01-26T04:45:11;102302.0;;;21.47;24.16
41383;BME280;27971;53.902;9.118;2023-01-26T04:47:13;102303.0;;;21.42;24.19
41383;BME280;27971;53.902;9.118;2023-01-26T04:49:15;102301.0;;;21.34;24.28
41383;BME280;27971;53.902;9.118;2023-01-26T04:51:20;102299.0;;;21.49;24.21
41383;BME280;27971;53.902;9.118;2023-01-26T04:53:20;102301.0;;;21.56;24.15
41383;BME280;27971;53.902;9.118;2023-01-26T04:55:23;102295.0;;;21.38;24.28
41383;BME280;27971;53.902;9.118;2023-01-26T04:57:25;102290.0;;;21.4;24.26
41383;BME280;27971;53.902;9.118;2023-01-26T04:59:28;102287.0;;;21.46;24.25
41383;BME280;27971;53.902;9.118;2023-01-26T05:01:31;102286.0;;;21.36;24.31
41383;BME280;27971;53.902;9.118;2023-01-26T05:03:34;102287.0;;;21.18;24.29
41383;BME280;27971;53.902;9.118;2023-01-26T05:05:37;102289.0;;;21.55;24.21
41383;BME280;27971;53.902;9.118;2023-01-26T05:07:39;102290.0;;;21.57;24.17
41383;BME280;27971;53.902;9.118;2023-01-26T05:09:42;102288.0;;;21.52;24.2
41383;BME280;27971;53.902;9.118;2023-01-26T05:11:45;102289.0;;;21.45;24.23
41383;BME280;27971;53.902;9.118;2023-01-26T05:13:48;102289.0;;;21.34;24.26
41383;BME280;27971;53.902;9.118;2023-01-26T05:15:50;102288.0;;;21.4;24.25
41383;BME280;27971;53.902;9.118;2023-01-26T05:17:53;102289.0;;;21.47;24.25
41383;BME280;27971;53.902;9.118;2023-01-26T05:19:57;102292.0;;;21.61;24.32
41383;BME280;27971;53.902;9.118;2023-01-26T05:21:58;102296.0;;;21.73;24.46
41383;BME280;27971;53.902;9.118;2023-01-26T05:24:01;102296.0;;;21.56;24.66
41383;BME280;27971;53.902;9.118;2023-01-26T05:26:04;102297.0;;;21.56;24.65
41383;BME280;27971;53.902;9.118;2023-01-26T05:28:06;102296.0;;;21.57;24.76
41383;BME280;27971;53.902;9.118;2023-01-26T05:30:10;102292.0;;;21.73;24.73
41383;BME280;27971;53.902;9.118;2023-01-26T05:32:12;102290.0;;;21.61;24.98
41383;BME280;27971;53.902;9.118;2023-01-26T05:34:15;102290.0;;;21.61;25.1
41383;BME280;27971;53.902;9.118;2023-01-26T05:36:17;102290.0;;;21.91;24.94
41383;BME280;27971;53.902;9.118;2023-01-26T05:38:20;102286.0;;;21.89;25.02
41383;BME280;27971;53.902;9.118;2023-01-26T05:40:22;102286.0;;;21.7;25.1
41383;BME280;27971;53.902;9.118;2023-01-26T05:42:26;102285.0;;;21.78;25.02
41383;BME280;27971;53.902;9.118;2023-01-26T05:44:28;102290.0;;;21.77;25.04
41383;BME280;27971;53.902;9.118;2023-01-26T05:46:30;102292.0;;;21.75;24.98
41383;BME280;27971;53.902;9.118;2023-01-26T05:48:33;102295.0;;;21.63;25.07
41383;BME280;27971;53.902;9.118;2023-01-26T05:50:35;102298.0;;;21.68;25.14
41383;BME280;27971;53.902;9.118;2023-01-26T05:52:38;102296.0;;;21.84;25.08
41383;BME280;27971;53.902;9.118;2023-01-26T05:54:41;102294.0;;;21.74;25.09
41383;BME280;27971;53.902;9.118;2023-01-26T05:56:43;102296.0;;;21.9;24.98
41383;BME280;27971;53.902;9.118;2023-01-26T05:58:45;102297.0;;;21.94;25.01
41383;BME280;27971;53.902;9.118;2023-01-26T06:00:48;102297.0;;;21.96;25.03
41383;BME280;27971;53.902;9.118;2023-01-26T06:02:53;102297.0;;;21.77;25.27
41383;BME280;27971;53.902;9.118;2023-01-26T06:04:53;102300.0;;;21.51;25.39
41383;BME280;27971;53.902;9.118;2023-01-26T06:06:57;102301.0;;;21.57;25.27
41383;BME280;27971;53.902;9.118;2023-01-26T06:09:00;102303.0;;;21.69;25.19
41383;BME280;27971;53.902;9.118;2023-01-26T06:11:01;102300.0;;;21.75;24.66
41383;BME280;27971;53.902;9.118;2023-01-26T06:13:04;102296.0;;;21.9;23.89
41383;BME280;27971;53.902;9.118;2023-01-26T06:15:08;102295.0;;;21.99;23.5
41383;BME280;27971;53.902;9.118;2023-01-26T06:17:09;102298.0;;;22.38;22.92
41383;BME280;27971;53.902;9.118;2023-01-26T06:19:12;102298.0;;;22.52;22.85
41383;BME280;27971;53.902;9.118;2023-01-26T06:21:15;102297.0;;;22.36;22.85
41383;BME280;27971;53.902;9.118;2023-01-26T06:23:18;102298.0;;;22.8;22.6
41383;BME280;27971;53.902;9.118;2023-01-26T06:25:20;102304.0;;;22.76;22.53
41383;BME280;27971;53.902;9.118;2023-01-26T06:27:23;102313.0;;;22.8;22.26
41383;BME280;27971;53.902;9.118;2023-01-26T06:29:26;102311.0;;;23.81;21.39
41383;BME280;27971;53.902;9.118;2023-01-26T06:31:29;102306.0;;;23.8;21.24
41383;BME280;27971;53.902;9.118;2023-01-26T06:33:32;102305.0;;;24.26;20.73
41383;BME280;27971;53.902;9.118;2023-01-26T06:35:34;102302.0;;;24.42;20.23
41383;BME280;27971;53.902;9.118;2023-01-26T06:37:39;102298.0;;;24.39;19.93
41383;BME280;27971;53.902;9.118;2023-01-26T06:39:40;102302.0;;;23.96;20.2
41383;BME280;27971;53.902;9.118;2023-01-26T06:41:43;102304.0;;;23.81;20.31
41383;BME280;27971;53.902;9.118;2023-01-26T06:43:47;102306.0;;;24.33;19.93
41383;BME280;27971;53.902;9.118;2023-01-26T06:45:49;102309.0;;;24.26;19.93
41383;BME280;27971;53.902;9.118;2023-01-26T06:47:51;102310.0;;;23.43;19.88
41383;BME280;27971;53.902;9.118;2023-01-26T06:49:55;102307.0;;;21.5;19.26
41383;BME280;27971;53.902;9.118;2023-01-26T06:52:02;102306.0;;;21.95;18.32
41383;BME280;27971;53.902;9.118;2023-01-26T06:54:00;102305.0;;;22.41;17.85
41383;BME280;27971;53.902;9.118;2023-01-26T06:56:03;102305.0;;;22.25;17.62
41383;BME280;27971;53.902;9.118;2023-01-26T06:58:07;102301.0;;;22.72;17.31
41383;BME280;27971;53.902;9.118;2023-01-26T07:00:11;102297.0;;;23.55;16.94
41383;BME280;27971;53.902;9.118;2023-01-26T07:02:17;102301.0;;;24.06;16.9
41383;BME280;27971;53.902;9.118;2023-01-26T07:04:16;102304.0;;;22.72;17.26
41383;BME280;27971;53.902;9.118;2023-01-26T07:06:19;102309.0;;;22.84;17.07
41383;BME280;27971;53.902;9.118;2023-01-26T07:08:22;102315.0;;;22.71;17.21
41383;BME280;27971;53.902;9.118;2023-01-26T07:10:24;102320.0;;;21.12;18.23
41383;BME280;27971;53.902;9.118;2023-01-26T07:12:37;102324.0;;;20.55;18.73
41383;BME280;27971;53.902;9.118;2023-01-26T07:14:31;102329.0;;;20.19;18.8
41383;BME280;27971;53.902;9.118;2023-01-26T07:16:38;102333.0;;;20.32;18.73
41383;BME280;27971;53.902;9.118;2023-01-26T07:18:37;102334.0;;;21.8;18.03
41383;BME280;27971;53.902;9.118;2023-01-26T07:20:42;102335.0;;;21.94;17.97
41383;BME280;27971;53.902;9.118;2023-01-26T07:22:42;102338.0;;;19.6;20.08
41383;BME280;27971;53.902;9.118;2023-01-26T07:24:45;102340.0;;;18.21;20.47
41383;BME280;27971;53.902;9.118;2023-01-26T07:26:48;102340.0;;;19.41;19.8
41383;BME280;27971;53.902;9.118;2023-01-26T07:28:50;102340.0;;;20.67;18.97
41383;BME280;27971;53.902;9.118;2023-01-26T07:30:56;102346.0;;;17.7;21.01
41383;BME280;27971;53.902;9.118;2023-01-26T07:32:58;102344.0;;;18.09;20.93
41383;BME280;27971;53.902;9.118;2023-01-26T07:34:59;102341.0;;;17.63;21.11
41383;BME280;27971;53.902;9.118;2023-01-26T07:37:03;102340.0;;;17.98;21.14
41383;BME280;27971;53.902;9.118;2023-01-26T07:39:05;102342.0;;;17.86;21.11
41383;BME280;27971;53.902;9.118;2023-01-26T07:41:10;102342.0;;;18.15;20.84
41383;BME280;27971;53.902;9.118;2023-01-26T07:43:10;102343.0;;;18.37;20.65
41383;BME280;27971;53.902;9.118;2023-01-26T07:45:12;102347.0;;;18.18;20.86
41383;BME280;27971;53.902;9.118;2023-01-26T07:47:15;102344.0;;;19.47;19.82
41383;BME280;27971;53.902;9.118;2023-01-26T07:49:19;102340.0;;;19.42;19.86
41383;BME280;27971;53.902;9.118;2023-01-26T07:51:22;102339.0;;;19.6;19.94
41383;BME280;27971;53.902;9.118;2023-01-26T07:53:25;102338.0;;;19.46;19.76
41383;BME280;27971;53.902;9.118;2023-01-26T07:55:28;102337.0;;;19.43;19.58
41383;BME280;27971;53.902;9.118;2023-01-26T07:57:31;102340.0;;;19.98;19.33
41383;BME280;27971;53.902;9.118;2023-01-26T07:59:33;102342.0;;;19.78;19.41
41383;BME280;27971;53.902;9.118;2023-01-26T08:01:41;102342.0;;;22.24;17.91
41383;BME280;27971;53.902;9.118;2023-01-26T08:03:38;102347.0;;;22.3;17.61
41383;BME280;27971;53.902;9.118;2023-01-26T08:05:40;102348.0;;;22.44;17.38
41383;BME280;27971;53.902;9.118;2023-01-26T08:07:43;102345.0;;;22.68;17.19
41383;BME280;27971;53.902;9.118;2023-01-26T08:09:46;102347.0;;;22.77;17.23
41383;BME280;27971;53.902;9.118;2023-01-26T08:11:49;102349.0;;;23.09;17.04
41383;BME280;27971;53.902;9.118;2023-01-26T08:13:52;102352.0;;;23.35;17.17
41383;BME280;27971;53.902;9.118;2023-01-26T08:16:00;102355.0;;;23.29;17.24
41383;BME280;27971;53.902;9.118;2023-01-26T08:17:58;102356.0;;;23.47;17.27
41383;BME280;27971;53.902;9.118;2023-01-26T08:20:01;102357.0;;;22.62;17.31
41383;BME280;27971;53.902;9.118;2023-01-26T08:22:03;102356.0;;;22.09;17.49
41383;BME280;27971;53.902;9.118;2023-01-26T08:24:05;102352.0;;;22.87;17.38
41383;BME280;27971;53.902;9.118;2023-01-26T08:26:11;102358.0;;;22.54;17.38
41383;BME280;27971;53.902;9.118;2023-01-26T08:28:12;102358.0;;;22.06;17.71
41383;BME280;27971;53.902;9.118;2023-01-26T08:30:16;102356.0;;;22.18;17.56
41383;BME280;27971;53.902;9.118;2023-01-26T08:32:18;102357.0;;;22.23;17.44
41383;BME280;27971;53.902;9.118;2023-01-26T08:34:21;102362.0;;;22.07;17.64
41383;BME280;27971;53.902;9.118;2023-01-26T08:36:23;102358.0;;;22.68;17.36
41383;BME280;27971;53.902;9.118;2023-01-26T08:38:28;102359.0;;;22.22;17.43
41383;BME280;27971;53.902;9.118;2023-01-26T08:40:28;102362.0;;;22.37;17.35
41383;BME280;27971;53.902;9.118;2023-01-26T08:42:32;102364.0;;;22.46;17.4
41383;BME280;27971;53.902;9.118;2023-01-26T08:44:34;102365.0;;;21.98;17.5
41383;BME280;27971;53.902;9.118;2023-01-26T08:46:38;102362.0;;;22.88;17.38
41383;BME280;27971;53.902;9.118;2023-01-26T08:48:40;102357.0;;;22.91;17.5
41383;BME280;27971;53.902;9.118;2023-01-26T08:50:44;102362.0;;;23.06;17.35
41383;BME280;27971;53.902;9.118;2023-01-26T08:52:46;102368.0;;;23.2;17.3
41383;BME280;27971;53.902;9.118;2023-01-26T08:54:49;102368.0;;;22.41;17.38
41383;BME280;27971;53.902;9.118;2023-01-26T08:56:52;102369.0;;;22.44;17.25
41383;BME280;27971;53.902;9.118;2023-01-26T08:58:55;102370.0;;;23.36;17.1
41383;BME280;27971;53.902;9.118;2023-01-26T09:00:57;102369.0;;;23.16;17.16
41383;BME280;27971;53.902;9.118;2023-01-26T09:03:01;102373.0;;;23.12;17.09
41383;BME280;27971;53.902;9.118;2023-01-26T09:05:05;102374.0;;;23.45;16.97
41383;BME280;27971;53.902;9.118;2023-01-26T09:07:07;102376.0;;;23.12;17.18
41383;BME280;27971;53.902;9.118;2023-01-26T09:09:10;102377.0;;;23.31;17.05
41383;BME280;27971;53.902;9.118;2023-01-26T09:11:14;102374.0;;;22.97;16.99
41383;BME280;27971;53.902;9.118;2023-01-26T09:13:15;102375.0;;;22.96;16.94
41383;BME280;27971;53.902;9.118;2023-01-26T09:15:19;102374.0;;;23.67;16.8
41383;BME280;27971;53.902;9.118;2023-01-26T09:17:21;102371.0;;;23.34;16.84
41383;BME280;27971;53.902;9.118;2023-01-26T09:19:24;102371.0;;;23.23;16.75
41383;BME280;27971;53.902;9.118;2023-01-26T09:21:28;102370.0;;;23.83;16.56
41383;BME280;27971;53.902;9.118;2023-01-26T09:23:30;102372.0;;;24.06;16.79
41383;BME280;27971;53.902;9.118;2023-01-26T09:25:35;102368.0;;;23.43;17.02
41383;BME280;27971;53.902;9.118;2023-01-26T09:27:36;102367.0;;;22.92;17.33
41383;BME280;27971;53.902;9.118;2023-01-26T09:29:39;102368.0;;;22.6;17.24
41383;BME280;27971;53.902;9.118;2023-01-26T09:31:42;102367.0;;;23.43;17.0
41383;BME280;27971;53.902;9.118;2023-01-26T09:33:45;102368.0;;;22.73;17.25
41383;BME280;27971;53.902;9.118;2023-01-26T09:35:48;102363.0;;;22.94;17.14
41383;BME280;27971;53.902;9.118;2023-01-26T09:37:52;102364.0;;;22.62;17.16
41383;BME280;27971;53.902;9.118;2023-01-26T09:39:55;102371.0;;;22.66;17.06
41383;BME280;27971;53.902;9.118;2023-01-26T09:42:11;102367.0;;;23.51;16.96
41383;BME280;27971;53.902;9.118;2023-01-26T09:44:04;102361.0;;;23.28;17.05
41383;BME280;27971;53.902;9.118;2023-01-26T09:46:16;102361.0;;;24.04;16.96
41383;BME280;27971;53.902;9.118;2023-01-26T09:48:15;102365.0;;;23.39;17.05
41383;BME280;27971;53.902;9.118;2023-01-26T09:50:12;102367.0;;;23.71;16.85
41383;BME280;27971;53.902;9.118;2023-01-26T09:52:18;102368.0;;;24.08;16.77
41383;BME280;27971;53.902;9.118;2023-01-26T09:54:21;102363.0;;;24.32;16.6
41383;BME280;27971;53.902;9.118;2023-01-26T09:56:20;102366.0;;;24.72;16.75
41383;BME280;27971;53.902;9.118;2023-01-26T09:58:27;102371.0;;;24.35;17.16
41383;BME280;27971;53.902;9.118;2023-01-26T10:00:26;102370.0;;;24.23;17.03
41383;BME280;27971;53.902;9.118;2023-01-26T10:02:36;102371.0;;;24.83;16.91
41383;BME280;27971;53.902;9.118;2023-01-26T10:04:31;102373.0;;;24.6;16.88
41383;BME280;27971;53.902;9.118;2023-01-26T10:06:32;102372.0;;;24.93;16.87
41383;BME280;27971;53.902;9.118;2023-01-26T10:08:35;102373.0;;;24.32;17.11
41383;BME280;27971;53.902;9.118;2023-01-26T10:10:42;102369.0;;;22.75;17.68
41383;BME280;27971;53.902;9.118;2023-01-26T10:12:41;102364.0;;;23.65;17.49
41383;BME280;27971;53.902;9.118;2023-01-26T10:14:48;102366.0;;;23.72;17.4
41383;BME280;27971;53.902;9.118;2023-01-26T10:16:48;102364.0;;;23.99;17.4
41383;BME280;27971;53.902;9.118;2023-01-26T10:18:52;102372.0;;;23.23;17.59
41383;BME280;27971;53.902;9.118;2023-01-26T10:21:00;102379.0;;;22.9;17.66
41383;BME280;27971;53.902;9.118;2023-01-26T10:22:58;102377.0;;;22.48;17.78
41383;BME280;27971;53.902;9.118;2023-01-26T10:24:59;102374.0;;;23.31;17.61
41383;BME280;27971;53.902;9.118;2023-01-26T10:27:01;102368.0;;;23.19;17.76
41383;BME280;27971;53.902;9.118;2023-01-26T10:29:04;102367.0;;;23.13;17.76
41383;BME280;27971;53.902;9.118;2023-01-26T10:31:14;102370.0;;;23.06;17.74
41383;BME280;27971;53.902;9.118;2023-01-26T10:33:15;102370.0;;;22.12;17.83
41383;BME280;27971;53.902;9.118;2023-01-26T10:35:16;102369.0;;;22.76;17.55
41383;BME280;27971;53.902;9.118;2023-01-26T10:37:20;102367.0;;;23.0;17.59
41383;BME280;27971;53.902;9.118;2023-01-26T10:39:19;102365.0;;;22.76;17.72
41383;BME280;27971;53.902;9.118;2023-01-26T10:41:26;102362.0;;;22.65;17.68
41383;BME280;27971;53.902;9.118;2023-01-26T10:43:25;102360.0;;;22.63;17.8
41383;BME280;27971;53.902;9.118;2023-01-26T10:45:29;102359.0;;;22.77;17.84
41383;BME280;27971;53.902;9.118;2023-01-26T10:47:30;102356.0;;;22.37;17.88
41383;BME280;27971;53.902;9.118;2023-01-26T10:49:33;102354.0;;;22.04;17.96
41383;BME280;27971;53.902;9.118;2023-01-26T10:51:37;102353.0;;;23.19;17.67